Etusivu
METAR-TAF:

METAR-TAF

Lentoasemat :

Bagdad, Irak

Bagdadin kansainvälinen lentoasema

Leveyspiiri: 33-15-45N, Pituuspiiri: 44-14-04E, korkeus merenpinnasta: 35 m

Tämänhetkinen sää

Tämä raportti tehtiin 22 minuuttia sitten, kello 09.30 UTC
Tuuli 7 kn lännestä/lounaasta, vaihdellen etelän/lounaan ja lännen/luoteen välillä
Lämpötila 31°C
Kosteus 21%
Ilmanpaine 1012 hPa
Näkyvyys: 8000 m

METAR: ORBI 220930Z 25007KT 210V290 8000 NSC 31/06 Q1012

Aika: 12:52 (09:52 UTC)

Sääennuste

Tämä raportti tehtiin 5 tuntia ja 52 minuuttia sitten, kello 04.00 UTC
Ennuste voimassa 22. päivästä klo 06 UTC - 23. päivään klo 06 UTC
Tuuli 5 kn lännestä/luoteesta
Tulossa
22. päivästä klo 21 UTC - 22. päivään klo 23 UTC
Tuuli 5 kn idästä/kaakosta

TAF: ORBI 220400Z 2206/2306 30005KT BECMG 2221/2223 12005KT

Säähavainnot ja -ennusteet yli 4000 lentoasemalta (METAR- ja TAF-raportit).

Käytössä olevat sääasemat on merkitty karttaan keltaisilla ja punaisilla pisteillä.

Aseta hiiri pisteen päälle nähdäksesi sääaseman nimen.

Klikkaa sitten nähdäksesi säähavainnot ja -ennusteet.

Kartan vaihtaminen: klikkaa mustalla rastilla varustettuja vihreitä pisteitä, niin voit zoomata sisään; viivalla varustettua vihreää pistettä, niin voit zoomata ulos tai vihreitä nuolia, niin pääset viereisille kartoille.


METAR-TAF: